sensor_id;sensor_type;location;lat;lon;timestamp;temperature;humidity
22645;DHT22;11489;50.834;6.752;2023-05-27T00:00:32;10.90;58.70
22645;DHT22;11489;50.834;6.752;2023-05-27T00:02:58;10.80;58.90
22645;DHT22;11489;50.834;6.752;2023-05-27T00:05:26;10.80;59.00
22645;DHT22;11489;50.834;6.752;2023-05-27T00:07:52;10.80;59.20
22645;DHT22;11489;50.834;6.752;2023-05-27T00:10:17;10.70;59.30
22645;DHT22;11489;50.834;6.752;2023-05-27T00:12:43;10.70;59.30
22645;DHT22;11489;50.834;6.752;2023-05-27T00:15:09;10.60;59.40
22645;DHT22;11489;50.834;6.752;2023-05-27T00:17:35;10.60;59.70
22645;DHT22;11489;50.834;6.752;2023-05-27T00:20:01;10.50;59.80
22645;DHT22;11489;50.834;6.752;2023-05-27T00:22:32;10.50;59.90
22645;DHT22;11489;50.834;6.752;2023-05-27T00:25:00;10.40;60.00
22645;DHT22;11489;50.834;6.752;2023-05-27T00:27:25;10.40;60.10
22645;DHT22;11489;50.834;6.752;2023-05-27T00:29:51;10.30;60.20
22645;DHT22;11489;50.834;6.752;2023-05-27T00:32:17;10.30;60.50
22645;DHT22;11489;50.834;6.752;2023-05-27T00:34:42;10.20;60.80
22645;DHT22;11489;50.834;6.752;2023-05-27T00:37:08;10.10;61.00
22645;DHT22;11489;50.834;6.752;2023-05-27T00:39:34;10.10;61.10
22645;DHT22;11489;50.834;6.752;2023-05-27T00:42:00;10.00;61.40
22645;DHT22;11489;50.834;6.752;2023-05-27T00:44:28;10.00;61.60
22645;DHT22;11489;50.834;6.752;2023-05-27T00:46:53;9.90;61.70
22645;DHT22;11489;50.834;6.752;2023-05-27T00:49:19;9.80;61.80
22645;DHT22;11489;50.834;6.752;2023-05-27T00:51:45;9.80;62.00
22645;DHT22;11489;50.834;6.752;2023-05-27T00:54:11;9.70;62.10
22645;DHT22;11489;50.834;6.752;2023-05-27T00:56:37;9.70;62.30
22645;DHT22;11489;50.834;6.752;2023-05-27T00:59:03;9.60;62.50
22645;DHT22;11489;50.834;6.752;2023-05-27T01:01:29;9.60;62.70
22645;DHT22;11489;50.834;6.752;2023-05-27T01:03:56;9.50;62.90
22645;DHT22;11489;50.834;6.752;2023-05-27T01:09:10;9.40;63.40
22645;DHT22;11489;50.834;6.752;2023-05-27T01:12:10;9.30;63.60
22645;DHT22;11489;50.834;6.752;2023-05-27T01:14:40;9.30;65.00
22645;DHT22;11489;50.834;6.752;2023-05-27T01:17:09;9.30;63.50
22645;DHT22;11489;50.834;6.752;2023-05-27T01:19:40;9.20;63.70
22645;DHT22;11489;50.834;6.752;2023-05-27T01:22:11;9.10;64.10
22645;DHT22;11489;50.834;6.752;2023-05-27T01:24:37;9.10;64.30
22645;DHT22;11489;50.834;6.752;2023-05-27T01:27:03;9.10;64.20
22645;DHT22;11489;50.834;6.752;2023-05-27T01:29:30;9.00;64.20
22645;DHT22;11489;50.834;6.752;2023-05-27T01:32:00;9.00;64.60
22645;DHT22;11489;50.834;6.752;2023-05-27T01:34:38;9.00;64.70
22645;DHT22;11489;50.834;6.752;2023-05-27T01:37:07;8.90;65.50
22645;DHT22;11489;50.834;6.752;2023-05-27T01:39:35;8.90;65.00
22645;DHT22;11489;50.834;6.752;2023-05-27T01:42:01;8.90;65.10
22645;DHT22;11489;50.834;6.752;2023-05-27T01:44:30;8.90;65.20
22645;DHT22;11489;50.834;6.752;2023-05-27T01:47:00;8.80;65.40
22645;DHT22;11489;50.834;6.752;2023-05-27T01:49:26;8.80;65.60
22645;DHT22;11489;50.834;6.752;2023-05-27T01:51:52;8.80;65.40
22645;DHT22;11489;50.834;6.752;2023-05-27T01:54:17;8.80;65.80
22645;DHT22;11489;50.834;6.752;2023-05-27T01:56:43;8.70;65.80
22645;DHT22;11489;50.834;6.752;2023-05-27T01:59:09;8.70;66.10
22645;DHT22;11489;50.834;6.752;2023-05-27T02:01:34;8.70;66.10
22645;DHT22;11489;50.834;6.752;2023-05-27T02:04:00;8.70;66.30
22645;DHT22;11489;50.834;6.752;2023-05-27T02:06:26;8.60;66.30
22645;DHT22;11489;50.834;6.752;2023-05-27T02:08:52;8.60;66.40
22645;DHT22;11489;50.834;6.752;2023-05-27T02:11:17;8.60;66.60
22645;DHT22;11489;50.834;6.752;2023-05-27T02:13:43;8.60;66.70
22645;DHT22;11489;50.834;6.752;2023-05-27T02:16:09;8.60;66.80
22645;DHT22;11489;50.834;6.752;2023-05-27T02:18:35;8.60;66.30
22645;DHT22;11489;50.834;6.752;2023-05-27T02:21:01;8.60;66.20
22645;DHT22;11489;50.834;6.752;2023-05-27T02:23:32;8.60;66.30
22645;DHT22;11489;50.834;6.752;2023-05-27T02:25:58;8.60;66.50
22645;DHT22;11489;50.834;6.752;2023-05-27T02:28:23;8.60;66.50
22645;DHT22;11489;50.834;6.752;2023-05-27T02:30:49;8.70;66.30
22645;DHT22;11489;50.834;6.752;2023-05-27T02:33:15;8.70;66.40
22645;DHT22;11489;50.834;6.752;2023-05-27T02:35:40;8.70;66.70
22645;DHT22;11489;50.834;6.752;2023-05-27T02:38:06;8.70;66.40
22645;DHT22;11489;50.834;6.752;2023-05-27T02:40:32;8.70;66.70
22645;DHT22;11489;50.834;6.752;2023-05-27T02:42:57;8.80;66.40
22645;DHT22;11489;50.834;6.752;2023-05-27T02:45:23;8.80;66.50
22645;DHT22;11489;50.834;6.752;2023-05-27T02:47:49;8.80;66.60
22645;DHT22;11489;50.834;6.752;2023-05-27T02:50:15;8.80;66.20
22645;DHT22;11489;50.834;6.752;2023-05-27T02:52:41;8.80;66.60
22645;DHT22;11489;50.834;6.752;2023-05-27T02:55:07;8.80;66.60
22645;DHT22;11489;50.834;6.752;2023-05-27T02:57:33;8.80;66.50
22645;DHT22;11489;50.834;6.752;2023-05-27T02:59:59;8.80;66.70
22645;DHT22;11489;50.834;6.752;2023-05-27T03:02:24;8.80;66.90
22645;DHT22;11489;50.834;6.752;2023-05-27T03:04:50;8.80;66.90
22645;DHT22;11489;50.834;6.752;2023-05-27T03:07:16;8.80;67.00
22645;DHT22;11489;50.834;6.752;2023-05-27T03:09:41;8.70;66.80
22645;DHT22;11489;50.834;6.752;2023-05-27T03:12:07;8.70;66.80
22645;DHT22;11489;50.834;6.752;2023-05-27T03:14:33;8.70;66.90
22645;DHT22;11489;50.834;6.752;2023-05-27T03:16:59;8.70;66.70
22645;DHT22;11489;50.834;6.752;2023-05-27T03:19:26;8.70;67.00
22645;DHT22;11489;50.834;6.752;2023-05-27T03:21:52;8.60;67.10
22645;DHT22;11489;50.834;6.752;2023-05-27T03:24:17;8.60;67.10
22645;DHT22;11489;50.834;6.752;2023-05-27T03:26:43;8.60;67.20
22645;DHT22;11489;50.834;6.752;2023-05-27T03:29:09;8.60;67.40
22645;DHT22;11489;50.834;6.752;2023-05-27T03:31:35;8.60;67.60
22645;DHT22;11489;50.834;6.752;2023-05-27T03:34:00;8.50;67.60
22645;DHT22;11489;50.834;6.752;2023-05-27T03:36:26;8.50;67.80
22645;DHT22;11489;50.834;6.752;2023-05-27T03:38:52;8.50;67.90
22645;DHT22;11489;50.834;6.752;2023-05-27T03:41:17;8.50;67.70
22645;DHT22;11489;50.834;6.752;2023-05-27T03:43:43;8.40;68.00
22645;DHT22;11489;50.834;6.752;2023-05-27T03:46:08;8.40;68.40
22645;DHT22;11489;50.834;6.752;2023-05-27T03:48:34;8.40;68.50
22645;DHT22;11489;50.834;6.752;2023-05-27T03:51:00;8.40;68.20
22645;DHT22;11489;50.834;6.752;2023-05-27T03:53:25;8.40;68.30
22645;DHT22;11489;50.834;6.752;2023-05-27T03:55:51;8.40;68.30
22645;DHT22;11489;50.834;6.752;2023-05-27T03:58:17;8.40;68.70
22645;DHT22;11489;50.834;6.752;2023-05-27T04:00:42;8.40;68.80
22645;DHT22;11489;50.834;6.752;2023-05-27T04:03:09;8.40;69.30
22645;DHT22;11489;50.834;6.752;2023-05-27T04:05:35;8.50;69.50
22645;DHT22;11489;50.834;6.752;2023-05-27T04:08:02;8.60;69.90
22645;DHT22;11489;50.834;6.752;2023-05-27T04:10:28;8.70;70.20
22645;DHT22;11489;50.834;6.752;2023-05-27T04:12:54;8.80;70.30
22645;DHT22;11489;50.834;6.752;2023-05-27T04:15:20;8.90;70.60
22645;DHT22;11489;50.834;6.752;2023-05-27T04:17:46;9.10;70.60
22645;DHT22;11489;50.834;6.752;2023-05-27T04:20:11;9.30;70.60
22645;DHT22;11489;50.834;6.752;2023-05-27T04:22:41;9.50;70.70
22645;DHT22;11489;50.834;6.752;2023-05-27T04:25:08;9.70;70.90
22645;DHT22;11489;50.834;6.752;2023-05-27T04:27:34;9.90;71.00
22645;DHT22;11489;50.834;6.752;2023-05-27T04:30:00;10.10;70.80
22645;DHT22;11489;50.834;6.752;2023-05-27T04:32:26;10.30;70.30
22645;DHT22;11489;50.834;6.752;2023-05-27T04:34:53;10.40;69.70
22645;DHT22;11489;50.834;6.752;2023-05-27T04:37:19;10.60;70.00
22645;DHT22;11489;50.834;6.752;2023-05-27T04:39:45;10.60;68.80
22645;DHT22;11489;50.834;6.752;2023-05-27T04:42:13;10.70;68.50
22645;DHT22;11489;50.834;6.752;2023-05-27T04:44:41;10.70;68.30
22645;DHT22;11489;50.834;6.752;2023-05-27T04:47:06;10.70;68.10
22645;DHT22;11489;50.834;6.752;2023-05-27T04:49:32;10.70;68.00
22645;DHT22;11489;50.834;6.752;2023-05-27T04:52:00;10.70;68.00
22645;DHT22;11489;50.834;6.752;2023-05-27T04:54:25;10.70;68.00
22645;DHT22;11489;50.834;6.752;2023-05-27T04:56:51;10.70;68.00
22645;DHT22;11489;50.834;6.752;2023-05-27T04:59:17;10.70;68.00
22645;DHT22;11489;50.834;6.752;2023-05-27T05:01:46;10.70;68.70
22645;DHT22;11489;50.834;6.752;2023-05-27T05:04:25;10.70;68.10
22645;DHT22;11489;50.834;6.752;2023-05-27T05:06:50;10.70;68.10
22645;DHT22;11489;50.834;6.752;2023-05-27T05:09:17;10.70;68.00
22645;DHT22;11489;50.834;6.752;2023-05-27T05:11:43;10.70;67.80
22645;DHT22;11489;50.834;6.752;2023-05-27T05:14:09;10.70;68.10
22645;DHT22;11489;50.834;6.752;2023-05-27T05:16:34;10.70;68.30
22645;DHT22;11489;50.834;6.752;2023-05-27T05:19:00;10.70;68.00
22645;DHT22;11489;50.834;6.752;2023-05-27T05:21:26;10.70;68.20
22645;DHT22;11489;50.834;6.752;2023-05-27T05:23:52;10.80;68.30
22645;DHT22;11489;50.834;6.752;2023-05-27T05:26:17;10.80;68.30
22645;DHT22;11489;50.834;6.752;2023-05-27T05:28:43;10.80;68.60
22645;DHT22;11489;50.834;6.752;2023-05-27T05:31:09;10.90;68.70
22645;DHT22;11489;50.834;6.752;2023-05-27T05:33:35;11.00;68.80
22645;DHT22;11489;50.834;6.752;2023-05-27T05:36:01;11.00;68.90
22645;DHT22;11489;50.834;6.752;2023-05-27T05:38:27;11.10;69.00
22645;DHT22;11489;50.834;6.752;2023-05-27T05:40:52;11.20;69.10
22645;DHT22;11489;50.834;6.752;2023-05-27T05:43:20;11.30;68.80
22645;DHT22;11489;50.834;6.752;2023-05-27T05:45:46;11.40;68.50
22645;DHT22;11489;50.834;6.752;2023-05-27T05:48:11;11.40;68.30
22645;DHT22;11489;50.834;6.752;2023-05-27T05:50:37;11.50;68.30
22645;DHT22;11489;50.834;6.752;2023-05-27T05:53:03;11.50;68.10
22645;DHT22;11489;50.834;6.752;2023-05-27T05:55:28;11.50;68.40
22645;DHT22;11489;50.834;6.752;2023-05-27T05:57:54;11.60;68.70
22645;DHT22;11489;50.834;6.752;2023-05-27T06:00:19;11.70;68.80
22645;DHT22;11489;50.834;6.752;2023-05-27T06:02:45;11.70;68.90
22645;DHT22;11489;50.834;6.752;2023-05-27T06:05:11;11.80;69.00
22645;DHT22;11489;50.834;6.752;2023-05-27T06:07:36;11.90;68.80
22645;DHT22;11489;50.834;6.752;2023-05-27T06:10:02;12.00;68.90
22645;DHT22;11489;50.834;6.752;2023-05-27T06:12:28;12.10;68.70
22645;DHT22;11489;50.834;6.752;2023-05-27T06:14:54;12.20;68.60
22645;DHT22;11489;50.834;6.752;2023-05-27T06:17:19;12.30;68.50
22645;DHT22;11489;50.834;6.752;2023-05-27T06:19:45;12.40;68.40
22645;DHT22;11489;50.834;6.752;2023-05-27T06:22:10;12.50;68.30
22645;DHT22;11489;50.834;6.752;2023-05-27T06:27:22;12.70;68.20
22645;DHT22;11489;50.834;6.752;2023-05-27T06:29:48;12.80;68.00
22645;DHT22;11489;50.834;6.752;2023-05-27T06:32:13;12.90;67.90
22645;DHT22;11489;50.834;6.752;2023-05-27T06:34:39;13.00;68.00
22645;DHT22;11489;50.834;6.752;2023-05-27T06:37:05;13.00;67.80
22645;DHT22;11489;50.834;6.752;2023-05-27T06:39:30;13.20;67.70
22645;DHT22;11489;50.834;6.752;2023-05-27T06:41:56;13.30;67.70
22645;DHT22;11489;50.834;6.752;2023-05-27T06:44:22;13.40;67.70
22645;DHT22;11489;50.834;6.752;2023-05-27T06:46:47;13.50;67.60
22645;DHT22;11489;50.834;6.752;2023-05-27T06:49:13;13.60;67.30
22645;DHT22;11489;50.834;6.752;2023-05-27T06:51:39;13.60;67.10
22645;DHT22;11489;50.834;6.752;2023-05-27T06:54:05;13.70;67.00
22645;DHT22;11489;50.834;6.752;2023-05-27T06:56:30;13.90;67.00
22645;DHT22;11489;50.834;6.752;2023-05-27T06:58:56;13.90;66.90
22645;DHT22;11489;50.834;6.752;2023-05-27T07:01:22;14.00;66.70
22645;DHT22;11489;50.834;6.752;2023-05-27T07:03:47;14.10;66.60
22645;DHT22;11489;50.834;6.752;2023-05-27T07:06:13;14.20;66.50
22645;DHT22;11489;50.834;6.752;2023-05-27T07:08:39;14.30;66.10
22645;DHT22;11489;50.834;6.752;2023-05-27T07:11:05;14.40;65.90
22645;DHT22;11489;50.834;6.752;2023-05-27T07:13:30;14.40;65.80
22645;DHT22;11489;50.834;6.752;2023-05-27T07:15:56;14.50;65.70
22645;DHT22;11489;50.834;6.752;2023-05-27T07:18:21;14.60;65.50
22645;DHT22;11489;50.834;6.752;2023-05-27T07:20:47;14.70;65.30
22645;DHT22;11489;50.834;6.752;2023-05-27T07:23:13;14.80;65.10
22645;DHT22;11489;50.834;6.752;2023-05-27T07:25:38;14.90;64.90
22645;DHT22;11489;50.834;6.752;2023-05-27T07:28:04;15.00;64.80
22645;DHT22;11489;50.834;6.752;2023-05-27T07:30:30;15.20;64.80
22645;DHT22;11489;50.834;6.752;2023-05-27T07:32:56;15.30;64.60
22645;DHT22;11489;50.834;6.752;2023-05-27T07:35:23;15.40;64.30
22645;DHT22;11489;50.834;6.752;2023-05-27T07:37:48;15.50;64.00
22645;DHT22;11489;50.834;6.752;2023-05-27T07:40:14;15.70;63.90
22645;DHT22;11489;50.834;6.752;2023-05-27T07:42:39;15.80;63.80
22645;DHT22;11489;50.834;6.752;2023-05-27T07:45:06;16.00;63.70
22645;DHT22;11489;50.834;6.752;2023-05-27T07:47:31;16.10;63.70
22645;DHT22;11489;50.834;6.752;2023-05-27T07:49:57;16.40;63.80
22645;DHT22;11489;50.834;6.752;2023-05-27T07:52:23;16.60;63.60
22645;DHT22;11489;50.834;6.752;2023-05-27T07:54:48;16.80;63.30
22645;DHT22;11489;50.834;6.752;2023-05-27T07:57:14;17.00;63.00
22645;DHT22;11489;50.834;6.752;2023-05-27T07:59:42;17.20;62.50
22645;DHT22;11489;50.834;6.752;2023-05-27T08:02:08;17.40;62.00
22645;DHT22;11489;50.834;6.752;2023-05-27T08:04:34;17.60;61.60
22645;DHT22;11489;50.834;6.752;2023-05-27T08:07:00;17.70;61.00
22645;DHT22;11489;50.834;6.752;2023-05-27T08:09:25;17.90;60.60
22645;DHT22;11489;50.834;6.752;2023-05-27T08:11:51;18.10;60.40
22645;DHT22;11489;50.834;6.752;2023-05-27T08:14:17;18.20;60.00
22645;DHT22;11489;50.834;6.752;2023-05-27T08:16:43;18.40;59.80
22645;DHT22;11489;50.834;6.752;2023-05-27T08:19:08;18.60;59.50
22645;DHT22;11489;50.834;6.752;2023-05-27T08:21:34;18.70;59.00
22645;DHT22;11489;50.834;6.752;2023-05-27T08:24:01;18.90;58.70
22645;DHT22;11489;50.834;6.752;2023-05-27T08:26:31;19.00;58.20
22645;DHT22;11489;50.834;6.752;2023-05-27T08:28:56;19.00;57.50
22645;DHT22;11489;50.834;6.752;2023-05-27T08:31:22;19.00;57.40
22645;DHT22;11489;50.834;6.752;2023-05-27T08:33:48;19.10;57.40
22645;DHT22;11489;50.834;6.752;2023-05-27T08:36:13;19.20;57.50
22645;DHT22;11489;50.834;6.752;2023-05-27T08:38:40;19.40;57.20
22645;DHT22;11489;50.834;6.752;2023-05-27T08:41:06;19.50;57.10
22645;DHT22;11489;50.834;6.752;2023-05-27T08:43:32;19.70;56.80
22645;DHT22;11489;50.834;6.752;2023-05-27T08:46:00;19.90;56.40
22645;DHT22;11489;50.834;6.752;2023-05-27T08:48:26;20.00;55.90
22645;DHT22;11489;50.834;6.752;2023-05-27T08:50:52;20.10;55.70
22645;DHT22;11489;50.834;6.752;2023-05-27T08:53:19;20.10;55.40
22645;DHT22;11489;50.834;6.752;2023-05-27T08:55:45;20.20;54.80
22645;DHT22;11489;50.834;6.752;2023-05-27T08:58:13;20.20;55.00
22645;DHT22;11489;50.834;6.752;2023-05-27T09:00:39;20.30;55.10
22645;DHT22;11489;50.834;6.752;2023-05-27T09:03:05;20.40;55.00
22645;DHT22;11489;50.834;6.752;2023-05-27T09:05:31;20.40;54.90
22645;DHT22;11489;50.834;6.752;2023-05-27T09:07:56;20.50;54.70
22645;DHT22;11489;50.834;6.752;2023-05-27T09:10:22;20.70;54.50
22645;DHT22;11489;50.834;6.752;2023-05-27T09:12:50;20.80;54.30
22645;DHT22;11489;50.834;6.752;2023-05-27T09:15:16;20.90;53.70
22645;DHT22;11489;50.834;6.752;2023-05-27T09:17:43;21.10;53.80
22645;DHT22;11489;50.834;6.752;2023-05-27T09:20:10;21.20;53.50
22645;DHT22;11489;50.834;6.752;2023-05-27T09:22:37;21.40;54.20
22645;DHT22;11489;50.834;6.752;2023-05-27T09:25:03;21.50;53.40
22645;DHT22;11489;50.834;6.752;2023-05-27T09:27:31;21.80;53.20
22645;DHT22;11489;50.834;6.752;2023-05-27T09:29:58;22.00;53.00
22645;DHT22;11489;50.834;6.752;2023-05-27T09:32:33;22.20;52.60
22645;DHT22;11489;50.834;6.752;2023-05-27T09:35:00;22.30;51.20
22645;DHT22;11489;50.834;6.752;2023-05-27T09:37:27;22.40;51.50
22645;DHT22;11489;50.834;6.752;2023-05-27T09:40:00;22.40;50.80
22645;DHT22;11489;50.834;6.752;2023-05-27T09:42:40;22.40;50.10
22645;DHT22;11489;50.834;6.752;2023-05-27T09:45:14;22.30;49.30
22645;DHT22;11489;50.834;6.752;2023-05-27T09:47:42;22.20;49.70
22645;DHT22;11489;50.834;6.752;2023-05-27T09:50:09;22.20;50.20
22645;DHT22;11489;50.834;6.752;2023-05-27T09:52:38;22.30;50.60
22645;DHT22;11489;50.834;6.752;2023-05-27T09:55:07;22.30;50.60
22645;DHT22;11489;50.834;6.752;2023-05-27T09:57:34;22.50;50.40
22645;DHT22;11489;50.834;6.752;2023-05-27T10:00:02;22.60;50.30
22645;DHT22;11489;50.834;6.752;2023-05-27T10:02:35;22.80;50.10
22645;DHT22;11489;50.834;6.752;2023-05-27T10:05:03;23.00;50.10
22645;DHT22;11489;50.834;6.752;2023-05-27T10:07:53;23.20;49.20
22645;DHT22;11489;50.834;6.752;2023-05-27T10:10:19;23.30;48.20
22645;DHT22;11489;50.834;6.752;2023-05-27T10:12:47;23.30;48.00
22645;DHT22;11489;50.834;6.752;2023-05-27T10:15:22;23.20;48.30
22645;DHT22;11489;50.834;6.752;2023-05-27T10:17:56;23.20;47.70
22645;DHT22;11489;50.834;6.752;2023-05-27T10:20:32;23.30;48.20
22645;DHT22;11489;50.834;6.752;2023-05-27T10:23:18;23.40;47.60
22645;DHT22;11489;50.834;6.752;2023-05-27T10:26:01;23.50;47.50
22645;DHT22;11489;50.834;6.752;2023-05-27T10:28:36;23.60;46.60
22645;DHT22;11489;50.834;6.752;2023-05-27T10:31:09;23.60;45.70
22645;DHT22;11489;50.834;6.752;2023-05-27T10:33:40;23.50;46.60
22645;DHT22;11489;50.834;6.752;2023-05-27T10:36:06;23.40;45.40
22645;DHT22;11489;50.834;6.752;2023-05-27T10:38:33;23.30;46.10
22645;DHT22;11489;50.834;6.752;2023-05-27T10:41:00;23.40;46.20
22645;DHT22;11489;50.834;6.752;2023-05-27T10:43:29;23.30;46.70
22645;DHT22;11489;50.834;6.752;2023-05-27T10:46:14;23.40;46.50
22645;DHT22;11489;50.834;6.752;2023-05-27T10:48:39;23.60;46.50
22645;DHT22;11489;50.834;6.752;2023-05-27T10:51:05;23.80;47.50
22645;DHT22;11489;50.834;6.752;2023-05-27T10:53:34;24.00;47.20
22645;DHT22;11489;50.834;6.752;2023-05-27T10:56:00;24.30;46.60
22645;DHT22;11489;50.834;6.752;2023-05-27T10:58:27;24.50;46.40
22645;DHT22;11489;50.834;6.752;2023-05-27T11:00:54;24.70;45.90
22645;DHT22;11489;50.834;6.752;2023-05-27T11:03:22;24.80;45.00
22645;DHT22;11489;50.834;6.752;2023-05-27T11:06:03;24.80;44.80
22645;DHT22;11489;50.834;6.752;2023-05-27T11:08:29;24.90;44.10
22645;DHT22;11489;50.834;6.752;2023-05-27T11:11:05;24.80;44.00
22645;DHT22;11489;50.834;6.752;2023-05-27T11:13:35;24.80;43.40
22645;DHT22;11489;50.834;6.752;2023-05-27T11:16:03;24.80;43.80
22645;DHT22;11489;50.834;6.752;2023-05-27T11:18:35;24.90;43.90
22645;DHT22;11489;50.834;6.752;2023-05-27T11:21:01;24.90;43.20
22645;DHT22;11489;50.834;6.752;2023-05-27T11:23:37;25.00;43.90
22645;DHT22;11489;50.834;6.752;2023-05-27T11:26:10;25.10;43.50
22645;DHT22;11489;50.834;6.752;2023-05-27T11:28:36;25.30;43.40
22645;DHT22;11489;50.834;6.752;2023-05-27T11:31:03;25.60;43.50
22645;DHT22;11489;50.834;6.752;2023-05-27T11:33:33;25.70;42.80
22645;DHT22;11489;50.834;6.752;2023-05-27T11:36:11;25.80;42.20
22645;DHT22;11489;50.834;6.752;2023-05-27T11:41:19;25.80;41.50
22645;DHT22;11489;50.834;6.752;2023-05-27T11:43:56;25.80;41.90
22645;DHT22;11489;50.834;6.752;2023-05-27T11:46:40;25.80;40.70
22645;DHT22;11489;50.834;6.752;2023-05-27T11:49:07;25.80;40.80
22645;DHT22;11489;50.834;6.752;2023-05-27T11:51:41;25.70;40.60
22645;DHT22;11489;50.834;6.752;2023-05-27T11:54:14;25.70;40.30
22645;DHT22;11489;50.834;6.752;2023-05-27T11:56:40;25.60;40.20
22645;DHT22;11489;50.834;6.752;2023-05-27T11:59:08;25.50;40.40
22645;DHT22;11489;50.834;6.752;2023-05-27T12:01:33;25.50;40.80
22645;DHT22;11489;50.834;6.752;2023-05-27T12:03:59;25.60;41.00
22645;DHT22;11489;50.834;6.752;2023-05-27T12:06:25;25.70;40.90
22645;DHT22;11489;50.834;6.752;2023-05-27T12:08:51;25.80;40.00
22645;DHT22;11489;50.834;6.752;2023-05-27T12:11:16;25.80;39.80
22645;DHT22;11489;50.834;6.752;2023-05-27T12:13:42;25.70;39.70
22645;DHT22;11489;50.834;6.752;2023-05-27T12:16:09;25.70;39.70
22645;DHT22;11489;50.834;6.752;2023-05-27T12:18:35;25.80;39.90
22645;DHT22;11489;50.834;6.752;2023-05-27T12:21:02;25.90;39.80
22645;DHT22;11489;50.834;6.752;2023-05-27T12:23:28;26.00;39.40
22645;DHT22;11489;50.834;6.752;2023-05-27T12:25:53;26.10;39.10
22645;DHT22;11489;50.834;6.752;2023-05-27T12:28:22;26.20;39.00
22645;DHT22;11489;50.834;6.752;2023-05-27T12:30:51;26.30;38.90
22645;DHT22;11489;50.834;6.752;2023-05-27T12:33:17;26.30;38.90
22645;DHT22;11489;50.834;6.752;2023-05-27T12:35:43;26.40;38.80
22645;DHT22;11489;50.834;6.752;2023-05-27T12:38:09;26.50;38.70
22645;DHT22;11489;50.834;6.752;2023-05-27T12:40:35;26.60;38.90
22645;DHT22;11489;50.834;6.752;2023-05-27T12:43:02;26.70;38.90
22645;DHT22;11489;50.834;6.752;2023-05-27T12:45:30;26.80;39.00
22645;DHT22;11489;50.834;6.752;2023-05-27T12:47:56;27.00;38.80
22645;DHT22;11489;50.834;6.752;2023-05-27T12:50:22;27.20;38.60
22645;DHT22;11489;50.834;6.752;2023-05-27T12:52:49;27.40;38.30
22645;DHT22;11489;50.834;6.752;2023-05-27T12:55:17;27.50;37.70
22645;DHT22;11489;50.834;6.752;2023-05-27T12:57:47;27.60;37.50
22645;DHT22;11489;50.834;6.752;2023-05-27T13:00:15;27.70;37.00
22645;DHT22;11489;50.834;6.752;2023-05-27T13:02:44;27.70;37.00
22645;DHT22;11489;50.834;6.752;2023-05-27T13:05:11;27.70;36.50
22645;DHT22;11489;50.834;6.752;2023-05-27T13:07:37;27.70;36.50
22645;DHT22;11489;50.834;6.752;2023-05-27T13:10:06;27.70;36.20
22645;DHT22;11489;50.834;6.752;2023-05-27T13:12:33;27.70;36.00
22645;DHT22;11489;50.834;6.752;2023-05-27T13:15:00;27.60;35.80
22645;DHT22;11489;50.834;6.752;2023-05-27T13:17:27;27.60;36.20
22645;DHT22;11489;50.834;6.752;2023-05-27T13:19:53;27.60;36.40
22645;DHT22;11489;50.834;6.752;2023-05-27T13:22:18;27.70;36.30
22645;DHT22;11489;50.834;6.752;2023-05-27T13:24:44;27.70;35.20
22645;DHT22;11489;50.834;6.752;2023-05-27T13:27:10;27.70;34.80
22645;DHT22;11489;50.834;6.752;2023-05-27T13:29:36;27.70;34.80
22645;DHT22;11489;50.834;6.752;2023-05-27T13:32:02;27.50;34.60
22645;DHT22;11489;50.834;6.752;2023-05-27T13:34:29;27.50;34.30
22645;DHT22;11489;50.834;6.752;2023-05-27T13:36:56;27.40;34.20
22645;DHT22;11489;50.834;6.752;2023-05-27T13:39:21;27.30;34.30
22645;DHT22;11489;50.834;6.752;2023-05-27T13:41:47;27.30;34.10
22645;DHT22;11489;50.834;6.752;2023-05-27T13:44:14;27.30;34.10
22645;DHT22;11489;50.834;6.752;2023-05-27T13:46:39;27.30;34.10
22645;DHT22;11489;50.834;6.752;2023-05-27T13:49:05;27.30;34.30
22645;DHT22;11489;50.834;6.752;2023-05-27T13:51:31;27.40;34.70
22645;DHT22;11489;50.834;6.752;2023-05-27T13:53:57;27.40;34.30
22645;DHT22;11489;50.834;6.752;2023-05-27T13:56:23;27.40;34.10
22645;DHT22;11489;50.834;6.752;2023-05-27T13:58:51;27.40;33.80
22645;DHT22;11489;50.834;6.752;2023-05-27T14:01:18;27.40;33.60
22645;DHT22;11489;50.834;6.752;2023-05-27T14:03:43;27.50;33.80
22645;DHT22;11489;50.834;6.752;2023-05-27T14:06:09;27.60;34.00
22645;DHT22;11489;50.834;6.752;2023-05-27T14:08:35;27.70;33.90
22645;DHT22;11489;50.834;6.752;2023-05-27T14:11:02;27.90;34.00
22645;DHT22;11489;50.834;6.752;2023-05-27T14:13:27;28.00;33.70
22645;DHT22;11489;50.834;6.752;2023-05-27T14:15:54;28.20;33.40
22645;DHT22;11489;50.834;6.752;2023-05-27T14:18:19;28.30;33.40
22645;DHT22;11489;50.834;6.752;2023-05-27T14:20:45;28.60;33.50
22645;DHT22;11489;50.834;6.752;2023-05-27T14:23:11;28.80;33.40
22645;DHT22;11489;50.834;6.752;2023-05-27T14:25:38;29.10;33.20
22645;DHT22;11489;50.834;6.752;2023-05-27T14:28:04;29.40;32.80
22645;DHT22;11489;50.834;6.752;2023-05-27T14:30:34;29.60;32.40
22645;DHT22;11489;50.834;6.752;2023-05-27T14:33:06;29.70;32.00
22645;DHT22;11489;50.834;6.752;2023-05-27T14:35:39;29.90;31.40
22645;DHT22;11489;50.834;6.752;2023-05-27T14:38:06;30.00;30.90
22645;DHT22;11489;50.834;6.752;2023-05-27T14:40:33;30.10;31.10
22645;DHT22;11489;50.834;6.752;2023-05-27T14:42:59;30.00;30.20
22645;DHT22;11489;50.834;6.752;2023-05-27T14:45:25;29.90;30.30
22645;DHT22;11489;50.834;6.752;2023-05-27T14:47:51;29.80;30.10
22645;DHT22;11489;50.834;6.752;2023-05-27T14:50:21;29.70;30.20
22645;DHT22;11489;50.834;6.752;2023-05-27T14:52:53;29.70;29.70
22645;DHT22;11489;50.834;6.752;2023-05-27T14:55:19;29.70;30.00
22645;DHT22;11489;50.834;6.752;2023-05-27T14:57:45;29.70;30.30
22645;DHT22;11489;50.834;6.752;2023-05-27T15:00:11;29.80;30.50
22645;DHT22;11489;50.834;6.752;2023-05-27T15:02:37;29.90;30.30
22645;DHT22;11489;50.834;6.752;2023-05-27T15:05:04;30.10;30.20
22645;DHT22;11489;50.834;6.752;2023-05-27T15:07:33;30.20;30.10
22645;DHT22;11489;50.834;6.752;2023-05-27T15:10:00;30.30;29.80
22645;DHT22;11489;50.834;6.752;2023-05-27T15:12:37;30.40;29.80
22645;DHT22;11489;50.834;6.752;2023-05-27T15:15:05;30.40;29.30
22645;DHT22;11489;50.834;6.752;2023-05-27T15:17:31;30.30;29.20
22645;DHT22;11489;50.834;6.752;2023-05-27T15:19:58;30.10;29.10
22645;DHT22;11489;50.834;6.752;2023-05-27T15:22:24;30.10;29.20
22645;DHT22;11489;50.834;6.752;2023-05-27T15:24:49;30.00;29.10
22645;DHT22;11489;50.834;6.752;2023-05-27T15:27:15;30.10;29.30
22645;DHT22;11489;50.834;6.752;2023-05-27T15:29:41;30.10;29.20
22645;DHT22;11489;50.834;6.752;2023-05-27T15:32:06;30.10;29.10
22645;DHT22;11489;50.834;6.752;2023-05-27T15:34:32;30.30;29.30
22645;DHT22;11489;50.834;6.752;2023-05-27T15:36:58;30.40;29.20
22645;DHT22;11489;50.834;6.752;2023-05-27T15:39:23;30.30;28.60
22645;DHT22;11489;50.834;6.752;2023-05-27T15:41:49;30.30;28.20